Weather at Auburn Fire Department Heliport

Public forecast

Using degrees Fahrenheit for public forecast. Weather courtesy of forecast.io.

Closest aviation weather report (METAR) to Auburn Fire Department Heliport

Closest report is Seattle–Tacoma International Airport, 8.7 nm (16.1 km) NNW.

2023/10/03 15:53 (retrieved 34 minutes ago)

KSEA 031553Z 02008KT 10SM BKN013 BKN042 BKN250 12/10 A3016 RMK AO2 SLP221 T01220100

Closest aviation forecast (TAF) to Auburn Fire Department Heliport

Closest forecast is Seattle–Tacoma International Airport, 8.7 nm (16.1 km) NNW.

2023/10/03 15:00 Ammendment (retrieved 1 hour ago)

TAF AMD KSEA 031457Z 0315/0418 36008KT P6SM SCT008 BKN015 OVC022 TEMPO 0315/0316 4SM BR FM031700 35005KT P6SM OVC010 FM032000 24005KT P6SM OVC017 FM040100 21006KT P6SM OVC025 FM040700 20005KT 6SM BR OVC008